sensor_id;sensor_type;location;lat;lon;timestamp;noise_LAeq;noise_LA_min;noise_LA_max;noise_LA01;noise_LA95
68279;Laerm;55108;51.790;10.960;2023-04-08T00:01:37;53.57;26.96;67.91;;
68279;Laerm;55108;51.790;10.960;2023-04-08T00:04:02;57.95;26.35;74.43;;
68279;Laerm;55108;51.790;10.960;2023-04-08T00:06:27;32.78;26.16;43.66;;
68279;Laerm;55108;51.790;10.960;2023-04-08T00:08:52;31.84;26.51;43.20;;
68279;Laerm;55108;51.790;10.960;2023-04-08T00:11:17;30.57;26.66;39.08;;
68279;Laerm;55108;51.790;10.960;2023-04-08T00:13:43;30.47;26.09;43.04;;
68279;Laerm;55108;51.790;10.960;2023-04-08T00:16:08;29.31;25.99;37.15;;
68279;Laerm;55108;51.790;10.960;2023-04-08T00:18:33;35.08;26.48;48.53;;
68279;Laerm;55108;51.790;10.960;2023-04-08T00:20:58;53.46;27.71;67.42;;
68279;Laerm;55108;51.790;10.960;2023-04-08T00:23:23;31.46;27.44;40.88;;
68279;Laerm;55108;51.790;10.960;2023-04-08T00:25:49;36.44;27.86;48.22;;
68279;Laerm;55108;51.790;10.960;2023-04-08T00:28:14;38.66;35.03;45.47;;
68279;Laerm;55108;51.790;10.960;2023-04-08T00:30:40;36.38;33.52;47.04;;
68279;Laerm;55108;51.790;10.960;2023-04-08T00:33:05;36.42;32.32;48.19;;
68279;Laerm;55108;51.790;10.960;2023-04-08T00:35:30;34.50;30.12;45.22;;
68279;Laerm;55108;51.790;10.960;2023-04-08T00:37:56;34.42;29.81;45.81;;
68279;Laerm;55108;51.790;10.960;2023-04-08T00:40:21;33.16;29.18;47.16;;
68279;Laerm;55108;51.790;10.960;2023-04-08T00:42:46;34.05;31.12;42.31;;
68279;Laerm;55108;51.790;10.960;2023-04-08T00:45:12;34.98;32.34;43.00;;
68279;Laerm;55108;51.790;10.960;2023-04-08T00:47:37;35.86;32.34;47.81;;
68279;Laerm;55108;51.790;10.960;2023-04-08T00:50:02;55.97;34.67;72.80;;
68279;Laerm;55108;51.790;10.960;2023-04-08T00:52:28;36.55;32.49;46.85;;
68279;Laerm;55108;51.790;10.960;2023-04-08T00:54:54;34.79;30.40;49.34;;
68279;Laerm;55108;51.790;10.960;2023-04-08T00:57:19;33.83;29.35;49.70;;
68279;Laerm;55108;51.790;10.960;2023-04-08T00:59:44;34.08;29.31;45.16;;
68279;Laerm;55108;51.790;10.960;2023-04-08T01:09:34;31.17;27.83;42.95;;
68279;Laerm;55108;51.790;10.960;2023-04-08T01:12:03;32.12;27.92;45.23;;
68279;Laerm;55108;51.790;10.960;2023-04-08T01:14:29;41.85;28.93;61.44;;
68279;Laerm;55108;51.790;10.960;2023-04-08T01:16:55;39.05;29.69;58.05;;
68279;Laerm;55108;51.790;10.960;2023-04-08T01:19:26;53.86;27.95;70.10;;
68279;Laerm;55108;51.790;10.960;2023-04-08T01:21:53;32.01;28.15;41.57;;
68279;Laerm;55108;51.790;10.960;2023-04-08T01:24:22;68.25;28.15;86.31;;
68279;Laerm;55108;51.790;10.960;2023-04-08T01:26:50;55.57;27.63;73.53;;
68279;Laerm;55108;51.790;10.960;2023-04-08T01:29:15;59.80;27.01;77.53;;
68279;Laerm;55108;51.790;10.960;2023-04-08T01:31:41;29.24;26.58;41.18;;
68279;Laerm;55108;51.790;10.960;2023-04-08T01:34:06;31.16;26.74;45.89;;
68279;Laerm;55108;51.790;10.960;2023-04-08T01:36:32;29.82;26.49;40.14;;
68279;Laerm;55108;51.790;10.960;2023-04-08T01:38:59;29.05;26.89;45.12;;
68279;Laerm;55108;51.790;10.960;2023-04-08T01:41:24;66.16;26.76;81.69;;
68279;Laerm;55108;51.790;10.960;2023-04-08T01:43:50;28.87;26.84;37.84;;
68279;Laerm;55108;51.790;10.960;2023-04-08T01:46:15;28.40;26.54;35.18;;
68279;Laerm;55108;51.790;10.960;2023-04-08T01:48:41;28.33;26.15;40.12;;
68279;Laerm;55108;51.790;10.960;2023-04-08T01:51:06;30.59;26.92;37.96;;
68279;Laerm;55108;51.790;10.960;2023-04-08T01:53:33;34.69;27.93;44.11;;
68279;Laerm;55108;51.790;10.960;2023-04-08T01:56:02;56.90;28.78;74.17;;
68279;Laerm;55108;51.790;10.960;2023-04-08T01:58:29;33.00;29.52;39.76;;
68279;Laerm;55108;51.790;10.960;2023-04-08T02:00:56;30.40;27.23;48.77;;
68279;Laerm;55108;51.790;10.960;2023-04-08T02:03:22;28.78;26.52;35.24;;
68279;Laerm;55108;51.790;10.960;2023-04-08T02:05:48;65.98;26.90;86.60;;
68279;Laerm;55108;51.790;10.960;2023-04-08T02:08:13;31.41;27.05;38.88;;
68279;Laerm;55108;51.790;10.960;2023-04-08T02:10:38;51.95;26.92;67.88;;
68279;Laerm;55108;51.790;10.960;2023-04-08T02:13:03;58.22;26.70;78.22;;
68279;Laerm;55108;51.790;10.960;2023-04-08T02:15:28;38.07;26.22;60.69;;
68279;Laerm;55108;51.790;10.960;2023-04-08T02:17:59;28.98;26.17;36.52;;
68279;Laerm;55108;51.790;10.960;2023-04-08T02:20:32;29.44;26.52;36.15;;
68279;Laerm;55108;51.790;10.960;2023-04-08T02:22:59;34.28;26.56;43.77;;
68279;Laerm;55108;51.790;10.960;2023-04-08T02:25:27;32.49;26.51;43.66;;
68279;Laerm;55108;51.790;10.960;2023-04-08T02:27:53;61.46;26.95;79.42;;
68279;Laerm;55108;51.790;10.960;2023-04-08T02:30:19;40.79;26.62;58.58;;
68279;Laerm;55108;51.790;10.960;2023-04-08T02:32:46;66.20;26.60;84.70;;
68279;Laerm;55108;51.790;10.960;2023-04-08T02:35:11;62.21;26.91;81.38;;
68279;Laerm;55108;51.790;10.960;2023-04-08T02:37:37;28.87;26.31;35.57;;
68279;Laerm;55108;51.790;10.960;2023-04-08T02:40:02;58.15;26.76;74.83;;
68279;Laerm;55108;51.790;10.960;2023-04-08T02:42:27;66.52;28.26;87.02;;
68279;Laerm;55108;51.790;10.960;2023-04-08T02:44:52;31.95;26.70;41.60;;
68279;Laerm;55108;51.790;10.960;2023-04-08T02:47:18;29.74;26.60;36.43;;
68279;Laerm;55108;51.790;10.960;2023-04-08T02:49:43;30.47;27.71;41.76;;
68279;Laerm;55108;51.790;10.960;2023-04-08T02:52:08;63.42;29.51;79.85;;
68279;Laerm;55108;51.790;10.960;2023-04-08T02:54:33;35.56;27.66;46.45;;
68279;Laerm;55108;51.790;10.960;2023-04-08T02:56:58;59.90;28.48;77.38;;
68279;Laerm;55108;51.790;10.960;2023-04-08T02:59:23;31.75;27.41;40.87;;
68279;Laerm;55108;51.790;10.960;2023-04-08T03:01:49;35.02;27.14;50.35;;
68279;Laerm;55108;51.790;10.960;2023-04-08T03:04:14;55.75;27.10;73.80;;
68279;Laerm;55108;51.790;10.960;2023-04-08T03:06:39;32.66;27.22;42.67;;
68279;Laerm;55108;51.790;10.960;2023-04-08T03:09:04;58.14;27.84;81.52;;
68279;Laerm;55108;51.790;10.960;2023-04-08T03:11:30;63.64;28.37;82.17;;
68279;Laerm;55108;51.790;10.960;2023-04-08T03:13:55;52.92;28.71;69.70;;
68279;Laerm;55108;51.790;10.960;2023-04-08T03:16:20;59.28;28.15;79.97;;
68279;Laerm;55108;51.790;10.960;2023-04-08T03:18:45;57.82;28.07;73.97;;
68279;Laerm;55108;51.790;10.960;2023-04-08T03:21:10;59.26;27.90;73.63;;
68279;Laerm;55108;51.790;10.960;2023-04-08T03:23:36;60.33;31.86;77.39;;
68279;Laerm;55108;51.790;10.960;2023-04-08T03:26:01;50.87;28.95;75.08;;
68279;Laerm;55108;51.790;10.960;2023-04-08T03:28:26;64.16;29.35;78.71;;
68279;Laerm;55108;51.790;10.960;2023-04-08T03:30:51;56.74;30.38;72.12;;
68279;Laerm;55108;51.790;10.960;2023-04-08T03:33:16;59.60;30.55;78.86;;
68279;Laerm;55108;51.790;10.960;2023-04-08T03:35:41;62.84;29.96;81.85;;
68279;Laerm;55108;51.790;10.960;2023-04-08T03:38:06;56.38;30.88;75.75;;
68279;Laerm;55108;51.790;10.960;2023-04-08T03:40:32;59.48;31.32;78.85;;
68279;Laerm;55108;51.790;10.960;2023-04-08T03:42:57;59.73;31.36;73.31;;
68279;Laerm;55108;51.790;10.960;2023-04-08T03:45:22;64.73;34.15;81.52;;
68279;Laerm;55108;51.790;10.960;2023-04-08T03:47:47;61.40;32.20;76.78;;
68279;Laerm;55108;51.790;10.960;2023-04-08T03:50:12;58.49;31.25;73.40;;
68279;Laerm;55108;51.790;10.960;2023-04-08T03:52:38;53.87;31.43;70.24;;
68279;Laerm;55108;51.790;10.960;2023-04-08T03:55:03;64.15;33.63;77.20;;
68279;Laerm;55108;51.790;10.960;2023-04-08T03:57:28;55.75;32.56;68.99;;
68279;Laerm;55108;51.790;10.960;2023-04-08T03:59:53;53.03;32.83;67.98;;
68279;Laerm;55108;51.790;10.960;2023-04-08T04:02:18;48.31;32.22;65.86;;
68279;Laerm;55108;51.790;10.960;2023-04-08T04:04:43;62.17;35.18;77.10;;
68279;Laerm;55108;51.790;10.960;2023-04-08T04:07:08;61.03;35.79;77.47;;
68279;Laerm;55108;51.790;10.960;2023-04-08T04:09:34;64.92;39.56;80.32;;
68279;Laerm;55108;51.790;10.960;2023-04-08T04:11:59;47.69;34.78;60.41;;
68279;Laerm;55108;51.790;10.960;2023-04-08T04:14:24;61.16;37.33;78.25;;
68279;Laerm;55108;51.790;10.960;2023-04-08T04:16:50;62.91;36.49;81.22;;
68279;Laerm;55108;51.790;10.960;2023-04-08T04:19:15;62.67;36.87;75.50;;
68279;Laerm;55108;51.790;10.960;2023-04-08T04:21:42;45.42;34.95;56.70;;
68279;Laerm;55108;51.790;10.960;2023-04-08T04:24:07;58.10;35.36;71.99;;
68279;Laerm;55108;51.790;10.960;2023-04-08T04:26:32;60.18;35.30;73.68;;
68279;Laerm;55108;51.790;10.960;2023-04-08T04:28:57;68.00;37.93;88.01;;
68279;Laerm;55108;51.790;10.960;2023-04-08T04:31:23;63.85;36.20;77.71;;
68279;Laerm;55108;51.790;10.960;2023-04-08T04:33:51;63.00;35.26;77.81;;
68279;Laerm;55108;51.790;10.960;2023-04-08T04:36:16;54.19;33.87;68.62;;
68279;Laerm;55108;51.790;10.960;2023-04-08T04:38:42;62.18;32.92;77.04;;
68279;Laerm;55108;51.790;10.960;2023-04-08T04:41:07;43.67;34.10;61.24;;
68279;Laerm;55108;51.790;10.960;2023-04-08T04:43:32;56.21;33.93;73.81;;
68279;Laerm;55108;51.790;10.960;2023-04-08T04:45:57;60.55;33.94;76.61;;
68279;Laerm;55108;51.790;10.960;2023-04-08T04:48:23;63.54;36.86;78.82;;
68279;Laerm;55108;51.790;10.960;2023-04-08T04:50:55;62.24;35.98;74.58;;
68279;Laerm;55108;51.790;10.960;2023-04-08T04:53:20;67.66;33.89;88.25;;
68279;Laerm;55108;51.790;10.960;2023-04-08T04:55:45;65.03;37.76;82.62;;
68279;Laerm;55108;51.790;10.960;2023-04-08T04:58:10;66.71;40.51;80.65;;
68279;Laerm;55108;51.790;10.960;2023-04-08T05:00:35;68.18;34.32;84.64;;
68279;Laerm;55108;51.790;10.960;2023-04-08T05:03:01;64.16;35.28;79.06;;
68279;Laerm;55108;51.790;10.960;2023-04-08T05:05:26;67.09;39.38;79.45;;
68279;Laerm;55108;51.790;10.960;2023-04-08T05:10:18;65.45;37.87;79.88;;
68279;Laerm;55108;51.790;10.960;2023-04-08T05:12:43;66.02;40.06;78.31;;
68279;Laerm;55108;51.790;10.960;2023-04-08T05:15:08;64.60;35.84;77.14;;
68279;Laerm;55108;51.790;10.960;2023-04-08T05:17:33;63.04;35.61;75.49;;
68279;Laerm;55108;51.790;10.960;2023-04-08T05:19:59;66.70;41.36;79.14;;
68279;Laerm;55108;51.790;10.960;2023-04-08T05:22:24;62.87;33.67;78.55;;
68279;Laerm;55108;51.790;10.960;2023-04-08T05:24:49;63.16;32.96;79.77;;
68279;Laerm;55108;51.790;10.960;2023-04-08T05:27:14;64.82;35.16;81.53;;
68279;Laerm;55108;51.790;10.960;2023-04-08T05:29:40;67.16;37.25;79.07;;
68279;Laerm;55108;51.790;10.960;2023-04-08T05:32:05;65.19;35.14;79.84;;
68279;Laerm;55108;51.790;10.960;2023-04-08T05:34:30;66.25;42.33;82.02;;
68279;Laerm;55108;51.790;10.960;2023-04-08T05:36:55;67.39;41.51;82.44;;
68279;Laerm;55108;51.790;10.960;2023-04-08T05:39:21;67.38;41.23;85.25;;
68279;Laerm;55108;51.790;10.960;2023-04-08T05:41:46;64.97;46.02;77.83;;
68279;Laerm;55108;51.790;10.960;2023-04-08T05:44:11;68.59;39.63;82.22;;
68279;Laerm;55108;51.790;10.960;2023-04-08T05:46:37;65.81;38.70;78.17;;
68279;Laerm;55108;51.790;10.960;2023-04-08T05:49:02;64.37;37.23;75.39;;
68279;Laerm;55108;51.790;10.960;2023-04-08T05:51:27;66.69;41.01;78.28;;
68279;Laerm;55108;51.790;10.960;2023-04-08T05:53:52;65.86;35.45;77.57;;
68279;Laerm;55108;51.790;10.960;2023-04-08T05:56:17;67.77;39.71;78.94;;
68279;Laerm;55108;51.790;10.960;2023-04-08T05:58:43;66.21;39.93;81.14;;
68279;Laerm;55108;51.790;10.960;2023-04-08T06:01:08;66.26;38.73;77.76;;
68279;Laerm;55108;51.790;10.960;2023-04-08T06:03:33;67.87;43.80;83.40;;
68279;Laerm;55108;51.790;10.960;2023-04-08T06:05:58;67.33;41.73;79.64;;
68279;Laerm;55108;51.790;10.960;2023-04-08T06:08:23;69.60;44.85;82.80;;
68279;Laerm;55108;51.790;10.960;2023-04-08T06:10:49;66.74;38.69;79.75;;
68279;Laerm;55108;51.790;10.960;2023-04-08T06:13:14;66.55;38.95;78.86;;
68279;Laerm;55108;51.790;10.960;2023-04-08T06:15:39;67.28;38.11;79.36;;
68279;Laerm;55108;51.790;10.960;2023-04-08T06:18:05;68.39;51.32;80.44;;
68279;Laerm;55108;51.790;10.960;2023-04-08T06:20:30;64.78;38.81;75.41;;
68279;Laerm;55108;51.790;10.960;2023-04-08T06:22:55;67.68;40.22;78.29;;
68279;Laerm;55108;51.790;10.960;2023-04-08T06:25:21;64.37;38.21;78.02;;
68279;Laerm;55108;51.790;10.960;2023-04-08T06:27:47;70.42;48.45;80.59;;
68279;Laerm;55108;51.790;10.960;2023-04-08T06:30:12;67.30;46.34;78.53;;
68279;Laerm;55108;51.790;10.960;2023-04-08T06:32:37;68.45;48.55;80.20;;
68279;Laerm;55108;51.790;10.960;2023-04-08T06:35:02;67.65;39.51;79.26;;
68279;Laerm;55108;51.790;10.960;2023-04-08T06:37:27;65.42;36.75;78.31;;
68279;Laerm;55108;51.790;10.960;2023-04-08T06:39:52;68.87;45.63;82.55;;
68279;Laerm;55108;51.790;10.960;2023-04-08T06:42:18;65.16;43.63;77.58;;
68279;Laerm;55108;51.790;10.960;2023-04-08T06:44:43;70.53;46.75;81.94;;
68279;Laerm;55108;51.790;10.960;2023-04-08T06:47:08;68.00;36.45;80.50;;
68279;Laerm;55108;51.790;10.960;2023-04-08T06:49:33;68.07;49.14;81.20;;
68279;Laerm;55108;51.790;10.960;2023-04-08T06:51:58;67.32;43.21;78.77;;
68279;Laerm;55108;51.790;10.960;2023-04-08T06:54:23;69.02;45.78;77.48;;
68279;Laerm;55108;51.790;10.960;2023-04-08T06:56:48;68.32;49.82;81.18;;
68279;Laerm;55108;51.790;10.960;2023-04-08T06:59:14;68.88;50.00;78.61;;
68279;Laerm;55108;51.790;10.960;2023-04-08T07:01:39;68.80;42.69;80.91;;
68279;Laerm;55108;51.790;10.960;2023-04-08T07:04:05;67.33;44.86;79.18;;
68279;Laerm;55108;51.790;10.960;2023-04-08T07:06:30;69.61;48.26;82.96;;
68279;Laerm;55108;51.790;10.960;2023-04-08T07:08:56;70.50;48.95;80.59;;
68279;Laerm;55108;51.790;10.960;2023-04-08T07:11:21;67.82;43.68;77.44;;
68279;Laerm;55108;51.790;10.960;2023-04-08T07:13:46;67.06;45.73;76.77;;
68279;Laerm;55108;51.790;10.960;2023-04-08T07:16:11;67.79;46.32;78.88;;
68279;Laerm;55108;51.790;10.960;2023-04-08T07:18:37;69.72;47.48;79.38;;
68279;Laerm;55108;51.790;10.960;2023-04-08T07:21:02;69.21;44.92;78.47;;
68279;Laerm;55108;51.790;10.960;2023-04-08T07:23:27;68.29;40.07;78.63;;
68279;Laerm;55108;51.790;10.960;2023-04-08T07:25:52;69.30;52.04;78.62;;
68279;Laerm;55108;51.790;10.960;2023-04-08T07:28:18;69.63;49.84;78.76;;
68279;Laerm;55108;51.790;10.960;2023-04-08T07:30:43;67.30;46.20;77.35;;
68279;Laerm;55108;51.790;10.960;2023-04-08T07:33:08;66.79;43.77;78.70;;
68279;Laerm;55108;51.790;10.960;2023-04-08T07:35:33;69.55;41.11;79.37;;
68279;Laerm;55108;51.790;10.960;2023-04-08T07:37:59;67.46;44.23;77.85;;
68279;Laerm;55108;51.790;10.960;2023-04-08T07:40:24;69.29;45.75;80.53;;
68279;Laerm;55108;51.790;10.960;2023-04-08T07:42:49;67.25;45.30;79.97;;
68279;Laerm;55108;51.790;10.960;2023-04-08T07:45:15;69.07;47.52;78.02;;
68279;Laerm;55108;51.790;10.960;2023-04-08T07:47:40;70.00;53.91;78.51;;
68279;Laerm;55108;51.790;10.960;2023-04-08T07:50:05;69.47;51.24;78.08;;
68279;Laerm;55108;51.790;10.960;2023-04-08T07:52:31;69.96;50.99;79.19;;
68279;Laerm;55108;51.790;10.960;2023-04-08T07:54:56;70.24;53.02;80.64;;
68279;Laerm;55108;51.790;10.960;2023-04-08T07:57:21;68.70;46.54;80.25;;
68279;Laerm;55108;51.790;10.960;2023-04-08T07:59:46;70.35;51.78;79.72;;
68279;Laerm;55108;51.790;10.960;2023-04-08T08:02:12;70.82;52.61;78.93;;
68279;Laerm;55108;51.790;10.960;2023-04-08T08:04:37;70.24;51.99;81.84;;
68279;Laerm;55108;51.790;10.960;2023-04-08T08:07:02;69.25;48.63;78.61;;
68279;Laerm;55108;51.790;10.960;2023-04-08T08:09:27;70.38;52.73;79.51;;
68279;Laerm;55108;51.790;10.960;2023-04-08T08:11:52;70.29;50.76;79.67;;
68279;Laerm;55108;51.790;10.960;2023-04-08T08:14:17;72.70;53.16;83.76;;
68279;Laerm;55108;51.790;10.960;2023-04-08T08:16:42;71.11;51.15;79.61;;
68279;Laerm;55108;51.790;10.960;2023-04-08T08:19:08;69.87;53.34;78.06;;
68279;Laerm;55108;51.790;10.960;2023-04-08T08:21:36;71.61;55.76;81.30;;
68279;Laerm;55108;51.790;10.960;2023-04-08T08:24:02;69.39;51.30;78.85;;
68279;Laerm;55108;51.790;10.960;2023-04-08T08:26:27;72.35;50.61;81.75;;
68279;Laerm;55108;51.790;10.960;2023-04-08T08:28:52;70.37;48.21;80.23;;
68279;Laerm;55108;51.790;10.960;2023-04-08T08:31:17;68.84;49.23;77.58;;
68279;Laerm;55108;51.790;10.960;2023-04-08T08:33:43;70.48;50.48;80.87;;
68279;Laerm;55108;51.790;10.960;2023-04-08T08:36:08;69.56;45.03;78.19;;
68279;Laerm;55108;51.790;10.960;2023-04-08T08:38:33;69.73;44.41;78.92;;
68279;Laerm;55108;51.790;10.960;2023-04-08T08:40:58;70.19;54.08;77.44;;
68279;Laerm;55108;51.790;10.960;2023-04-08T08:43:24;66.91;54.37;76.92;;
68279;Laerm;55108;51.790;10.960;2023-04-08T08:45:50;68.44;50.84;78.31;;
68279;Laerm;55108;51.790;10.960;2023-04-08T08:48:15;71.33;55.40;79.94;;
68279;Laerm;55108;51.790;10.960;2023-04-08T08:50:41;69.03;53.72;77.72;;
68279;Laerm;55108;51.790;10.960;2023-04-08T08:53:06;69.28;49.20;79.13;;
68279;Laerm;55108;51.790;10.960;2023-04-08T08:55:31;68.84;51.12;78.40;;
68279;Laerm;55108;51.790;10.960;2023-04-08T08:58:00;70.48;57.56;79.51;;
68279;Laerm;55108;51.790;10.960;2023-04-08T09:00:39;69.10;46.41;77.00;;
68279;Laerm;55108;51.790;10.960;2023-04-08T09:03:16;71.24;54.47;79.35;;
68279;Laerm;55108;51.790;10.960;2023-04-08T09:05:48;69.30;43.10;78.07;;
68279;Laerm;55108;51.790;10.960;2023-04-08T09:10:51;70.89;49.40;78.55;;
68279;Laerm;55108;51.790;10.960;2023-04-08T09:13:16;70.09;47.40;78.73;;
68279;Laerm;55108;51.790;10.960;2023-04-08T09:16:00;70.86;51.01;82.03;;
68279;Laerm;55108;51.790;10.960;2023-04-08T09:18:27;70.15;50.56;78.44;;
68279;Laerm;55108;51.790;10.960;2023-04-08T09:20:52;69.19;50.17;78.46;;
68279;Laerm;55108;51.790;10.960;2023-04-08T09:23:17;72.15;46.31;90.19;;
68279;Laerm;55108;51.790;10.960;2023-04-08T09:25:42;73.59;53.89;92.12;;
68279;Laerm;55108;51.790;10.960;2023-04-08T09:28:17;70.51;52.41;79.58;;
68279;Laerm;55108;51.790;10.960;2023-04-08T09:30:43;69.34;51.75;78.23;;
68279;Laerm;55108;51.790;10.960;2023-04-08T09:33:08;69.45;47.77;81.20;;
68279;Laerm;55108;51.790;10.960;2023-04-08T09:35:33;69.55;55.89;77.08;;
68279;Laerm;55108;51.790;10.960;2023-04-08T09:37:58;68.93;54.51;76.90;;
68279;Laerm;55108;51.790;10.960;2023-04-08T09:40:23;70.17;49.12;79.37;;
68279;Laerm;55108;51.790;10.960;2023-04-08T09:42:48;68.93;49.31;78.05;;
68279;Laerm;55108;51.790;10.960;2023-04-08T09:45:17;70.77;50.29;82.03;;
68279;Laerm;55108;51.790;10.960;2023-04-08T09:47:49;70.08;52.12;79.24;;
68279;Laerm;55108;51.790;10.960;2023-04-08T09:50:18;69.17;46.80;78.88;;
68279;Laerm;55108;51.790;10.960;2023-04-08T09:52:44;68.38;50.38;78.78;;
68279;Laerm;55108;51.790;10.960;2023-04-08T09:55:11;66.33;45.88;76.28;;
68279;Laerm;55108;51.790;10.960;2023-04-08T09:57:40;67.91;47.42;78.93;;
68279;Laerm;55108;51.790;10.960;2023-04-08T10:00:14;68.86;49.51;80.70;;
68279;Laerm;55108;51.790;10.960;2023-04-08T10:05:23;68.11;43.46;79.22;;
68279;Laerm;55108;51.790;10.960;2023-04-08T10:07:49;69.60;51.06;82.15;;
68279;Laerm;55108;51.790;10.960;2023-04-08T10:10:15;69.27;53.83;76.20;;
68279;Laerm;55108;51.790;10.960;2023-04-08T10:12:40;69.09;43.58;80.69;;
68279;Laerm;55108;51.790;10.960;2023-04-08T10:17:50;69.34;47.55;78.38;;
68279;Laerm;55108;51.790;10.960;2023-04-08T10:23:00;69.18;47.77;76.25;;
68279;Laerm;55108;51.790;10.960;2023-04-08T10:27:54;68.06;44.82;85.02;;
68279;Laerm;55108;51.790;10.960;2023-04-08T10:32:56;66.11;47.31;75.86;;
68279;Laerm;55108;51.790;10.960;2023-04-08T10:35:30;69.30;50.20;78.44;;
68279;Laerm;55108;51.790;10.960;2023-04-08T10:37:59;68.72;42.16;79.54;;
68279;Laerm;55108;51.790;10.960;2023-04-08T10:40:24;69.45;45.77;77.51;;
68279;Laerm;55108;51.790;10.960;2023-04-08T10:42:53;70.10;50.12;80.75;;
68279;Laerm;55108;51.790;10.960;2023-04-08T10:45:18;69.55;47.74;78.80;;
68279;Laerm;55108;51.790;10.960;2023-04-08T10:47:43;69.37;44.96;78.82;;
68279;Laerm;55108;51.790;10.960;2023-04-08T10:50:16;65.92;39.70;76.13;;
68279;Laerm;55108;51.790;10.960;2023-04-08T10:52:45;66.87;38.85;80.23;;
68279;Laerm;55108;51.790;10.960;2023-04-08T10:55:10;66.79;44.26;76.88;;
68279;Laerm;55108;51.790;10.960;2023-04-08T10:57:36;69.49;39.18;79.79;;
68279;Laerm;55108;51.790;10.960;2023-04-08T11:00:01;67.75;40.94;78.34;;
68279;Laerm;55108;51.790;10.960;2023-04-08T11:02:31;67.75;45.67;76.03;;
68279;Laerm;55108;51.790;10.960;2023-04-08T11:04:57;68.34;41.78;77.26;;
68279;Laerm;55108;51.790;10.960;2023-04-08T11:07:22;69.67;45.26;79.67;;
68279;Laerm;55108;51.790;10.960;2023-04-08T11:09:49;69.07;47.47;78.03;;
68279;Laerm;55108;51.790;10.960;2023-04-08T11:12:14;68.63;41.76;78.59;;
68279;Laerm;55108;51.790;10.960;2023-04-08T11:14:41;66.49;43.14;77.59;;
68279;Laerm;55108;51.790;10.960;2023-04-08T11:17:07;68.91;45.18;80.02;;
68279;Laerm;55108;51.790;10.960;2023-04-08T11:19:34;65.97;44.87;75.24;;
68279;Laerm;55108;51.790;10.960;2023-04-08T11:21:59;68.70;42.32;78.88;;
68279;Laerm;55108;51.790;10.960;2023-04-08T11:24:26;69.47;45.47;81.80;;
68279;Laerm;55108;51.790;10.960;2023-04-08T11:26:51;69.27;48.63;77.67;;
68279;Laerm;55108;51.790;10.960;2023-04-08T11:29:16;68.60;49.60;78.43;;
68279;Laerm;55108;51.790;10.960;2023-04-08T11:31:42;68.47;48.27;76.99;;
68279;Laerm;55108;51.790;10.960;2023-04-08T11:34:07;67.94;44.61;77.24;;
68279;Laerm;55108;51.790;10.960;2023-04-08T11:36:32;68.17;49.66;79.46;;
68279;Laerm;55108;51.790;10.960;2023-04-08T11:39:00;69.13;50.97;77.76;;
68279;Laerm;55108;51.790;10.960;2023-04-08T11:41:39;68.38;50.99;79.42;;
68279;Laerm;55108;51.790;10.960;2023-04-08T11:44:04;70.13;48.89;83.58;;
68279;Laerm;55108;51.790;10.960;2023-04-08T11:46:30;67.16;45.03;80.45;;
68279;Laerm;55108;51.790;10.960;2023-04-08T11:49:00;69.92;53.47;82.62;;
68279;Laerm;55108;51.790;10.960;2023-04-08T11:51:25;68.54;50.48;77.60;;
68279;Laerm;55108;51.790;10.960;2023-04-08T11:53:51;70.53;52.89;79.64;;
68279;Laerm;55108;51.790;10.960;2023-04-08T11:56:17;67.15;42.47;78.97;;
68279;Laerm;55108;51.790;10.960;2023-04-08T11:58:42;69.37;45.88;83.88;;
68279;Laerm;55108;51.790;10.960;2023-04-08T12:01:08;67.35;49.69;77.47;;
68279;Laerm;55108;51.790;10.960;2023-04-08T12:03:33;67.43;43.38;78.24;;
68279;Laerm;55108;51.790;10.960;2023-04-08T12:05:58;68.35;49.39;78.49;;
68279;Laerm;55108;51.790;10.960;2023-04-08T12:08:23;67.55;47.02;79.01;;
68279;Laerm;55108;51.790;10.960;2023-04-08T12:10:48;68.85;46.84;79.16;;
68279;Laerm;55108;51.790;10.960;2023-04-08T12:13:13;67.90;45.36;80.51;;
68279;Laerm;55108;51.790;10.960;2023-04-08T12:15:38;69.29;44.54;78.15;;
68279;Laerm;55108;51.790;10.960;2023-04-08T12:18:04;68.89;43.26;79.17;;
68279;Laerm;55108;51.790;10.960;2023-04-08T12:20:30;69.00;47.23;78.80;;
68279;Laerm;55108;51.790;10.960;2023-04-08T12:22:55;68.60;41.44;80.19;;
68279;Laerm;55108;51.790;10.960;2023-04-08T12:25:20;66.83;42.45;76.76;;
68279;Laerm;55108;51.790;10.960;2023-04-08T12:27:45;68.27;49.35;76.87;;
68279;Laerm;55108;51.790;10.960;2023-04-08T12:30:10;66.92;42.53;75.67;;
68279;Laerm;55108;51.790;10.960;2023-04-08T12:32:36;68.68;47.53;81.42;;
68279;Laerm;55108;51.790;10.960;2023-04-08T12:35:01;67.85;50.16;77.23;;
68279;Laerm;55108;51.790;10.960;2023-04-08T12:37:26;66.01;41.12;77.70;;
68279;Laerm;55108;51.790;10.960;2023-04-08T12:39:51;68.52;45.93;80.73;;
68279;Laerm;55108;51.790;10.960;2023-04-08T12:42:16;69.31;46.77;76.48;;
68279;Laerm;55108;51.790;10.960;2023-04-08T12:44:42;67.97;47.31;78.59;;
68279;Laerm;55108;51.790;10.960;2023-04-08T12:47:07;67.55;42.21;81.55;;
68279;Laerm;55108;51.790;10.960;2023-04-08T12:49:32;66.33;42.59;76.68;;
68279;Laerm;55108;51.790;10.960;2023-04-08T12:51:57;67.14;44.91;77.97;;
68279;Laerm;55108;51.790;10.960;2023-04-08T12:54:22;66.13;43.53;76.61;;
68279;Laerm;55108;51.790;10.960;2023-04-08T12:56:47;68.32;51.47;78.30;;
68279;Laerm;55108;51.790;10.960;2023-04-08T12:59:13;66.37;40.40;75.13;;
68279;Laerm;55108;51.790;10.960;2023-04-08T13:01:38;67.21;46.81;78.27;;
68279;Laerm;55108;51.790;10.960;2023-04-08T13:04:03;66.34;43.22;77.80;;
68279;Laerm;55108;51.790;10.960;2023-04-08T13:06:28;66.58;44.18;78.25;;
68279;Laerm;55108;51.790;10.960;2023-04-08T13:08:53;69.89;47.95;80.81;;
68279;Laerm;55108;51.790;10.960;2023-04-08T13:11:18;66.68;39.97;78.36;;
68279;Laerm;55108;51.790;10.960;2023-04-08T13:13:43;67.56;47.38;80.29;;
68279;Laerm;55108;51.790;10.960;2023-04-08T13:16:10;68.14;41.40;80.34;;
68279;Laerm;55108;51.790;10.960;2023-04-08T13:18:35;68.02;48.77;79.10;;
68279;Laerm;55108;51.790;10.960;2023-04-08T13:21:01;70.25;53.94;83.77;;
68279;Laerm;55108;51.790;10.960;2023-04-08T13:23:26;65.78;42.03;76.38;;
68279;Laerm;55108;51.790;10.960;2023-04-08T13:25:51;67.68;42.02;78.14;;
68279;Laerm;55108;51.790;10.960;2023-04-08T13:28:16;71.08;49.07;86.08;;
68279;Laerm;55108;51.790;10.960;2023-04-08T13:30:41;66.75;45.15;79.48;;
68279;Laerm;55108;51.790;10.960;2023-04-08T13:33:06;66.47;40.14;77.11;;
68279;Laerm;55108;51.790;10.960;2023-04-08T13:35:31;66.00;40.43;79.89;;
68279;Laerm;55108;51.790;10.960;2023-04-08T13:37:57;69.04;45.60;80.80;;
68279;Laerm;55108;51.790;10.960;2023-04-08T13:40:22;69.04;40.40;80.76;;
68279;Laerm;55108;51.790;10.960;2023-04-08T13:42:48;68.29;40.75;77.94;;
68279;Laerm;55108;51.790;10.960;2023-04-08T13:45:13;67.97;44.24;77.92;;
68279;Laerm;55108;51.790;10.960;2023-04-08T13:47:38;66.85;47.11;75.48;;
68279;Laerm;55108;51.790;10.960;2023-04-08T13:50:04;68.43;42.36;79.02;;